This is the latest recevied weather packets stored in our database for station/object SQ9PDE-13. If no packets are shown the sender has not sent any weather packets the latest 10 day(s).
| Time | Temp. | Humidity | Pressure | Rain* | Wind** | Luminosity | Snow |
|---|---|---|---|---|---|---|---|
| 1777648224 | 18.89° C | 44% | 1022.9 hPa | - | - | - | - |
| 1777647923 | 19.44° C | 42% | 1022.8 hPa | - | - | - | - |
| 1777647623 | 18.89° C | 43% | 1023 hPa | - | - | - | - |
| 1777647322 | 19.44° C | 42% | 1022.8 hPa | - | - | - | - |
| 1777647022 | 18.89° C | 42% | 1023.1 hPa | - | - | - | - |
| 1777646721 | 19.44° C | 43% | 1022.9 hPa | - | - | - | - |
| 1777646421 | 19.44° C | 44% | 1023 hPa | - | - | - | - |
| 1777646120 | 18.89° C | 45% | 1023.2 hPa | - | - | - | - |
| 1777645819 | 19.44° C | 43% | 1023.1 hPa | - | - | - | - |
| 1777645519 | 18.33° C | 44% | 1023.3 hPa | - | - | - | - |
| 1777645219 | 18.89° C | 43% | 1023.2 hPa | - | - | - | - |
| 1777644918 | 20° C | 44% | 1023.1 hPa | - | - | - | - |
| 1777644617 | 18.89° C | 45% | 1023.2 hPa | - | - | - | - |
| 1777644317 | 18.89° C | 43% | 1023.2 hPa | - | - | - | - |
| 1777644016 | 18.33° C | 45% | 1023.4 hPa | - | - | - | - |
| 1777643716 | 18.89° C | 45% | 1023.4 hPa | - | - | - | - |
| 1777643415 | 19.44° C | 44% | 1023.3 hPa | - | - | - | - |
| 1777643115 | 18.89° C | 45% | 1023.4 hPa | - | - | - | - |
| 1777642814 | 19.44° C | 43% | 1023.2 hPa | - | - | - | - |
| 1777642514 | 19.44° C | 44% | 1023.3 hPa | - | - | - | - |
| 1777642213 | 19.44° C | 44% | 1023.2 hPa | - | - | - | - |
| 1777641913 | 18.89° C | 45% | 1023.5 hPa | - | - | - | - |
| 1777641612 | 18.89° C | 44% | 1023.3 hPa | - | - | - | - |
| 1777641312 | 18.89° C | 45% | 1023.5 hPa | - | - | - | - |
| 1777641011 | 18.89° C | 43% | 1023.5 hPa | - | - | - | - |
* Rain since midnight (hover to see other rain measurements)
** Current wind speed in m/s (hover to see current wind gust speed)